createdAt,value
2023-05-18T00:00:46.386Z,7.18
2023-05-18T00:05:57.484Z,7.13
2023-05-18T00:11:01.967Z,7.10
2023-05-18T00:16:04.234Z,7.11
2023-05-18T00:21:08.639Z,7.10
2023-05-18T00:26:11.026Z,7.09
2023-05-18T00:31:13.275Z,7.11
2023-05-18T00:36:15.719Z,7.12
2023-05-18T00:41:17.912Z,7.11
2023-05-18T00:46:21.268Z,7.09
2023-05-18T00:51:24.314Z,7.08
2023-05-18T00:56:26.915Z,7.08
2023-05-18T01:01:34.334Z,7.08
2023-05-18T01:06:36.817Z,7.05
2023-05-18T01:12:02.550Z,7.01
2023-05-18T01:17:14.321Z,6.92
2023-05-18T01:22:48.692Z,6.83
2023-05-18T01:27:55.805Z,6.74
2023-05-18T01:32:58.017Z,6.66
2023-05-18T01:38:00.374Z,6.57
2023-05-18T01:43:15.859Z,6.50
2023-05-18T01:48:22.463Z,6.44
2023-05-18T01:53:55.246Z,6.41
2023-05-18T01:58:59.128Z,6.35
2023-05-18T02:04:01.342Z,6.33
2023-05-18T02:09:05.194Z,6.29
2023-05-18T02:14:07.362Z,6.27
2023-05-18T02:19:09.580Z,6.26
2023-05-18T02:24:12.650Z,6.27
2023-05-18T02:29:14.928Z,6.25
2023-05-18T02:34:17.837Z,6.22
2023-05-18T02:39:20.118Z,6.15
2023-05-18T02:44:22.311Z,6.15
2023-05-18T02:49:24.493Z,6.19
2023-05-18T02:54:26.673Z,6.16
2023-05-18T02:59:28.867Z,6.21
2023-05-18T03:04:31.661Z,6.28
2023-05-18T03:09:33.851Z,6.34
2023-05-18T03:14:36.343Z,6.40
2023-05-18T03:19:38.524Z,6.46
2023-05-18T03:24:40.895Z,6.52
2023-05-18T03:29:43.097Z,6.60
2023-05-18T03:34:47.398Z,6.67
2023-05-18T03:39:49.311Z,6.73
2023-05-18T03:44:51.802Z,6.80
2023-05-18T03:49:53.985Z,6.90
2023-05-18T03:54:56.594Z,7.08
2023-05-18T03:59:59.380Z,7.24
2023-05-18T04:05:01.768Z,7.42
2023-05-18T04:10:04.462Z,7.63
2023-05-18T04:15:07.430Z,7.81
2023-05-18T04:20:13.544Z,7.95
2023-05-18T04:25:16.472Z,8.13
2023-05-18T04:30:21.752Z,8.33
2023-05-18T04:35:26.602Z,8.48
2023-05-18T04:40:28.785Z,8.61
2023-05-18T04:45:31.698Z,8.82
2023-05-18T04:50:35.511Z,8.98
2023-05-18T04:55:37.901Z,9.20
2023-05-18T05:00:40.029Z,9.34
2023-05-18T05:05:42.221Z,9.49
2023-05-18T05:10:44.449Z,9.63
2023-05-18T05:15:46.492Z,9.70
2023-05-18T05:20:50.188Z,9.86
2023-05-18T05:25:52.375Z,9.97
2023-05-18T05:30:54.672Z,10.12
2023-05-18T05:35:56.948Z,10.26
2023-05-18T05:40:59.267Z,10.23
2023-05-18T05:46:01.523Z,10.29
2023-05-18T05:51:03.967Z,10.33
2023-05-18T05:56:07.967Z,10.45
2023-05-18T06:01:10.136Z,10.61
2023-05-18T06:06:13.030Z,10.73
2023-05-18T06:11:15.316Z,10.79
2023-05-18T06:16:17.398Z,10.83
2023-05-18T06:21:19.885Z,10.95
2023-05-18T06:26:22.788Z,11.05
2023-05-18T06:31:25.284Z,11.15
2023-05-18T06:36:27.770Z,11.27
2023-05-18T06:41:30.056Z,11.26
2023-05-18T06:46:32.394Z,11.31
2023-05-18T06:51:34.737Z,11.38
2023-05-18T06:56:37.023Z,11.50
2023-05-18T07:01:39.236Z,11.64
2023-05-18T07:06:41.696Z,11.72
2023-05-18T07:11:45.109Z,11.79
2023-05-18T07:16:47.314Z,11.94
2023-05-18T07:21:50.751Z,12.04
2023-05-18T07:26:52.782Z,12.12
2023-05-18T07:31:55.218Z,12.18
2023-05-18T07:36:57.568Z,12.43
2023-05-18T07:41:59.862Z,12.57
2023-05-18T07:47:02.158Z,12.66
2023-05-18T07:52:07.733Z,12.91
2023-05-18T07:57:09.795Z,13.06
2023-05-18T08:02:12.134Z,13.21
2023-05-18T08:07:14.663Z,13.23
2023-05-18T08:12:16.803Z,13.43
2023-05-18T08:17:19.441Z,13.85
2023-05-18T08:22:21.849Z,14.11
2023-05-18T08:27:24.014Z,14.25
2023-05-18T08:32:26.500Z,14.41
2023-05-18T08:37:28.687Z,14.60
2023-05-18T08:42:49.315Z,14.49
2023-05-18T08:47:57.002Z,14.57
2023-05-18T08:53:05.605Z,14.70
2023-05-18T08:58:11.835Z,14.86
2023-05-18T09:03:14.227Z,14.92
2023-05-18T09:08:18.449Z,14.85
2023-05-18T09:13:21.057Z,14.71
2023-05-18T09:18:24.938Z,14.90
2023-05-18T09:23:28.583Z,15.10
2023-05-18T09:28:39.262Z,15.51
2023-05-18T09:33:43.832Z,15.65
2023-05-18T09:38:46.462Z,15.51
2023-05-18T09:43:50.285Z,15.59
2023-05-18T09:48:54.055Z,15.76
2023-05-18T09:53:57.368Z,15.87
2023-05-18T09:59:11.432Z,15.89
2023-05-18T10:04:13.485Z,16.05
2023-05-18T10:09:16.527Z,16.32
2023-05-18T10:14:24.220Z,16.45
2023-05-18T10:19:27.731Z,16.60
2023-05-18T10:24:35.143Z,16.76
2023-05-18T10:29:38.150Z,17.11
2023-05-18T10:34:41.461Z,17.41
2023-05-18T10:39:45.301Z,17.72
2023-05-18T10:44:50.335Z,17.95
2023-05-18T10:49:53.847Z,18.17
2023-05-18T10:54:56.245Z,18.51
2023-05-18T10:59:58.729Z,18.54
2023-05-18T11:05:05.553Z,18.53
2023-05-18T11:10:10.584Z,18.82
2023-05-18T11:15:12.761Z,19.14
2023-05-18T11:20:17.096Z,19.39
2023-05-18T11:25:30.863Z,19.50
2023-05-18T11:30:33.293Z,19.45
2023-05-18T11:36:01.323Z,19.71
2023-05-18T11:41:03.511Z,19.79
2023-05-18T11:46:17.985Z,19.68
2023-05-18T11:51:20.780Z,19.74
2023-05-18T11:56:25.957Z,19.57
2023-05-18T12:01:29.855Z,19.60
2023-05-18T12:06:32.349Z,19.80
2023-05-18T12:11:35.146Z,19.97
2023-05-18T12:16:39.350Z,20.27
2023-05-18T12:21:41.462Z,20.67
2023-05-18T12:26:46.102Z,20.49
2023-05-18T12:31:49.005Z,20.67
2023-05-18T12:36:53.308Z,20.56
2023-05-18T12:42:08.938Z,20.43
2023-05-18T12:48:08.058Z,20.45
2023-05-18T12:53:10.749Z,20.69
2023-05-18T12:58:17.415Z,20.93
2023-05-18T13:03:21.469Z,21.18
2023-05-18T13:08:24.980Z,20.97
2023-05-18T13:13:27.066Z,21.16
2023-05-18T13:18:29.369Z,21.14
2023-05-18T13:23:31.493Z,21.04
2023-05-18T13:28:33.624Z,21.14
2023-05-18T13:33:35.802Z,20.94
2023-05-18T13:38:38.396Z,21.00
2023-05-18T13:43:44.629Z,21.38
2023-05-18T13:48:46.760Z,21.99
2023-05-18T13:53:48.942Z,23.23
2023-05-18T13:58:51.384Z,23.97
2023-05-18T14:03:53.647Z,25.13
2023-05-18T14:08:55.595Z,27.01
2023-05-18T14:13:57.789Z,27.91
2023-05-18T14:19:00.160Z,29.42
2023-05-18T14:24:03.590Z,31.66
2023-05-18T14:29:05.866Z,33.21
2023-05-18T14:34:08.092Z,34.23
2023-05-18T14:39:10.440Z,34.20
2023-05-18T14:44:13.345Z,35.16
2023-05-18T14:49:15.630Z,36.06
2023-05-18T14:54:19.072Z,33.93
2023-05-18T14:59:21.656Z,30.79
2023-05-18T15:04:24.961Z,29.62
2023-05-18T15:09:27.197Z,30.36
2023-05-18T15:14:29.549Z,30.37
2023-05-18T15:19:31.718Z,29.63
2023-05-18T15:24:34.104Z,28.93
2023-05-18T15:29:36.288Z,28.92
2023-05-18T15:34:38.561Z,28.84
2023-05-18T15:39:41.935Z,27.83
2023-05-18T15:44:45.183Z,27.02
2023-05-18T15:49:47.370Z,26.11
2023-05-18T15:54:49.658Z,25.01
2023-05-18T15:59:51.836Z,23.63
2023-05-18T16:04:54.052Z,22.60
2023-05-18T16:09:56.210Z,21.93
2023-05-18T16:14:58.397Z,21.15
2023-05-18T16:20:03.371Z,20.24
2023-05-18T16:25:06.558Z,19.43
2023-05-18T16:30:09.251Z,18.83
2023-05-18T16:35:11.532Z,18.38
2023-05-18T16:40:13.827Z,18.04
2023-05-18T16:45:16.123Z,17.72
2023-05-18T16:50:18.395Z,17.40
2023-05-18T16:55:20.779Z,17.13
2023-05-18T17:00:23.179Z,16.89
2023-05-18T17:05:26.134Z,16.57
2023-05-18T17:10:28.214Z,16.15
2023-05-18T17:15:30.523Z,15.75
2023-05-18T17:20:33.135Z,15.46
2023-05-18T17:25:35.436Z,15.19
2023-05-18T17:30:37.583Z,14.92
2023-05-18T17:35:39.990Z,14.70
2023-05-18T17:40:42.136Z,14.52
2023-05-18T17:45:44.663Z,14.31
2023-05-18T17:50:47.362Z,14.13
2023-05-18T17:55:49.492Z,13.99
2023-05-18T18:00:51.637Z,13.84
2023-05-18T18:05:53.813Z,13.77
2023-05-18T18:10:56.723Z,14.00
2023-05-18T18:15:58.900Z,14.78
2023-05-18T18:21:01.052Z,15.64
2023-05-18T18:26:04.632Z,15.79
2023-05-18T18:31:06.943Z,15.44
2023-05-18T18:36:09.239Z,14.91
2023-05-18T18:41:12.688Z,14.28
2023-05-18T18:46:14.918Z,13.65
2023-05-18T18:51:17.061Z,13.14
2023-05-18T18:56:19.242Z,12.73
2023-05-18T19:01:21.411Z,12.42
2023-05-18T19:06:24.157Z,12.17
2023-05-18T19:11:26.517Z,11.94
2023-05-18T19:16:28.700Z,11.77
2023-05-18T19:21:31.395Z,11.62
2023-05-18T19:26:34.248Z,11.50
2023-05-18T19:31:37.363Z,11.39
2023-05-18T19:36:39.686Z,11.31
2023-05-18T19:41:42.076Z,11.21
2023-05-18T19:46:45.598Z,11.14
2023-05-18T19:51:47.975Z,11.05
2023-05-18T19:56:50.164Z,10.98
2023-05-18T20:01:59.592Z,10.89
2023-05-18T20:07:02.425Z,10.81
2023-05-18T20:12:05.838Z,10.74
2023-05-18T20:17:08.651Z,10.66
2023-05-18T20:22:11.422Z,10.58
2023-05-18T20:27:15.403Z,10.51
2023-05-18T20:32:17.445Z,10.46
2023-05-18T20:37:19.485Z,10.38
2023-05-18T20:42:22.208Z,10.31
2023-05-18T20:47:24.653Z,10.24
2023-05-18T20:52:28.354Z,10.18
2023-05-18T20:57:30.936Z,10.11
2023-05-18T21:02:33.904Z,10.06
2023-05-18T21:07:42.870Z,10.01
2023-05-18T21:12:45.357Z,9.97
2023-05-18T21:17:47.456Z,9.94
2023-05-18T21:22:49.736Z,9.88
2023-05-18T21:27:51.907Z,9.81
2023-05-18T21:32:54.202Z,9.74
2023-05-18T21:37:56.490Z,9.70
2023-05-18T21:42:58.872Z,9.65
2023-05-18T21:48:01.507Z,9.60
2023-05-18T21:53:03.880Z,9.55
2023-05-18T21:58:06.157Z,9.49
2023-05-18T22:03:08.476Z,9.45
2023-05-18T22:08:11.329Z,9.41
2023-05-18T22:13:13.516Z,9.38
2023-05-18T22:18:17.130Z,9.34
2023-05-18T22:23:19.416Z,9.28
2023-05-18T22:28:21.804Z,9.24
2023-05-18T22:33:24.701Z,9.20
2023-05-18T22:38:27.350Z,9.17
2023-05-18T22:43:29.594Z,9.14
2023-05-18T22:48:34.535Z,9.11
2023-05-18T22:53:37.047Z,9.07
2023-05-18T22:58:39.218Z,9.03
2023-05-18T23:03:41.498Z,9.02
2023-05-18T23:08:43.780Z,9.00
2023-05-18T23:13:46.081Z,9.00
2023-05-18T23:18:50.122Z,8.98
2023-05-18T23:23:54.228Z,8.98
2023-05-18T23:28:56.416Z,8.98
2023-05-18T23:33:59.229Z,8.98
2023-05-18T23:39:02.217Z,8.98
2023-05-18T23:44:04.809Z,8.98
2023-05-18T23:49:07.618Z,8.97
2023-05-18T23:54:10.710Z,8.94
2023-05-18T23:59:15.452Z,8.94
